Time;durP1;ratioP1;P1;durP2;ratioP2;P2;SDS_P1;SDS_P2;PMS_P1;PMS_P2;Temp;Humidity;BMP_temperature;BMP_pressure;BME280_temperature;BME280_humidity;BME280_pressure;Samples;Min_cycle;Max_cycle;Signal;HPM_P1;HPM_P2
2022/04/29 00:00:07;;;;;;;4.15;1.98;;;6.90;99.90;;;;;;5064464;28;20040;-70
2022/04/29 00:02:34;;;;;;;7.95;2.17;;;6.90;99.90;;;;;;5067859;28;20503;-70
2022/04/29 00:05:00;;;;;;;3.70;1.80;;;6.90;99.90;;;;;;5048658;28;20548;-70
2022/04/29 00:07:25;;;;;;;4.25;1.90;;;6.90;99.90;;;;;;5049559;28;20048;-71
2022/04/29 00:09:51;;;;;;;3.83;2.08;;;6.90;99.90;;;;;;5048865;28;20040;-70
2022/04/29 00:12:19;;;;;;;3.08;1.77;;;6.90;99.90;;;;;;5067750;28;20041;-70
2022/04/29 00:14:44;;;;;;;2.20;1.33;;;6.80;99.90;;;;;;5065378;28;20115;-70
2022/04/29 00:17:10;;;;;;;4.22;1.75;;;6.80;99.90;;;;;;5064390;28;20119;-70
2022/04/29 00:19:36;;;;;;;4.60;1.33;;;6.80;99.90;;;;;;5066080;28;20040;-70
2022/04/29 00:22:01;;;;;;;3.45;1.48;;;6.70;99.90;;;;;;5064860;28;20043;-70
2022/04/29 00:24:27;;;;;;;2.50;1.50;;;6.70;99.90;;;;;;5066076;28;20032;-70
2022/04/29 00:26:54;;;;;;;8.35;1.90;;;6.70;99.90;;;;;;5066826;28;20037;-70
2022/04/29 00:29:19;;;;;;;3.50;2.10;;;6.70;99.90;;;;;;5048404;28;20128;-70
2022/04/29 00:31:45;;;;;;;2.33;1.38;;;6.70;99.90;;;;;;5049631;28;20163;-70
2022/04/29 00:34:11;;;;;;;3.85;1.90;;;6.70;99.90;;;;;;5065356;28;20036;-71
2022/04/29 00:36:37;;;;;;;2.80;1.38;;;6.70;99.90;;;;;;5048665;28;20466;-71
2022/04/29 00:39:02;;;;;;;3.03;1.80;;;6.60;99.90;;;;;;5032832;28;20040;-70
2022/04/29 00:41:28;;;;;;;3.50;1.58;;;6.60;99.90;;;;;;5060064;28;20064;-70
2022/04/29 00:44:08;;;;;;;7.15;2.15;;;6.50;99.90;;;;;;5045587;28;20072;-70
2022/04/29 00:46:41;;;;;;;6.93;2.25;;;6.50;99.90;;;;;;5065805;28;20037;-70
2022/04/29 00:49:11;;;;;;;5.15;2.15;;;6.50;99.90;;;;;;5066456;28;20040;-70
2022/04/29 00:51:37;;;;;;;4.00;2.03;;;6.50;99.90;;;;;;5062730;28;20494;-70
2022/04/29 00:54:06;;;;;;;4.50;2.20;;;6.50;99.90;;;;;;5065416;28;20040;-70
2022/04/29 00:56:36;;;;;;;4.93;2.42;;;6.50;99.90;;;;;;5065367;28;20040;-70
2022/04/29 00:59:09;;;;;;;2.55;1.55;;;6.50;99.90;;;;;;5045339;28;20056;-71
2022/04/29 01:01:37;;;;;;;4.65;2.20;;;6.50;99.90;;;;;;5065304;28;20048;-70
2022/04/29 01:04:04;;;;;;;9.82;1.95;;;6.50;99.90;;;;;;5062972;28;20494;-70
2022/04/29 01:06:30;;;;;;;4.25;1.50;;;6.40;99.90;;;;;;5064578;28;20036;-70
2022/04/29 01:08:56;;;;;;;4.07;1.92;;;6.40;99.90;;;;;;5061452;28;20043;-70
2022/04/29 01:11:24;;;;;;;6.60;1.98;;;6.30;99.90;;;;;;5066117;28;20044;-70
2022/04/29 01:13:50;;;;;;;2.90;1.80;;;6.30;99.90;;;;;;5047442;28;20051;-70
2022/04/29 01:16:18;;;;;;;3.08;1.67;;;6.20;99.90;;;;;;5065829;28;20064;-70
2022/04/29 01:18:45;;;;;;;8.95;2.58;;;6.20;99.90;;;;;;5064361;28;20506;-70
2022/04/29 01:21:12;;;;;;;3.72;1.33;;;6.10;99.90;;;;;;5063117;28;20055;-70
2022/04/29 01:23:38;;;;;;;4.68;2.00;;;6.10;99.90;;;;;;5063289;28;20447;-71
2022/04/29 01:26:04;;;;;;;3.17;1.58;;;6.00;99.90;;;;;;5062043;28;20091;-71
2022/04/29 01:28:31;;;;;;;3.20;1.77;;;6.00;99.90;;;;;;5064061;28;20508;-70
2022/04/29 01:30:59;;;;;;;3.35;1.58;;;6.00;99.90;;;;;;5058880;28;20057;-70
2022/04/29 01:33:28;;;;;;;3.40;2.30;;;5.90;99.90;;;;;;5065650;28;20505;-70
2022/04/29 01:35:55;;;;;;;3.15;1.80;;;5.90;99.90;;;;;;5066738;28;20616;-70
2022/04/29 01:38:21;;;;;;;2.75;1.55;;;5.90;99.90;;;;;;5049087;28;20044;-70
2022/04/29 01:40:46;;;;;;;4.15;2.10;;;6.00;99.90;;;;;;5065472;28;20044;-70
2022/04/29 01:43:12;;;;;;;3.45;2.03;;;5.90;99.90;;;;;;5063655;28;20111;-70
2022/04/29 01:45:38;;;;;;;3.90;2.33;;;5.90;99.90;;;;;;5065049;28;20036;-70
2022/04/29 01:48:04;;;;;;;4.30;2.15;;;5.90;99.90;;;;;;5064884;28;20041;-70
2022/04/29 01:50:30;;;;;;;4.45;2.42;;;5.80;99.90;;;;;;5064780;28;20388;-70
2022/04/29 01:52:55;;;;;;;7.47;1.92;;;5.80;99.90;;;;;;5046395;28;20047;-70
2022/04/29 01:55:21;;;;;;;3.92;2.13;;;5.70;99.90;;;;;;5051135;28;20033;-70
2022/04/29 01:57:50;;;;;;;1.98;1.40;;;5.80;99.90;;;;;;5047233;28;20033;-70
2022/04/29 02:00:16;;;;;;;2.92;1.52;;;5.70;99.90;;;;;;5067827;28;20251;-70
2022/04/29 02:02:43;;;;;;;5.03;1.38;;;5.70;99.90;;;;;;5051716;28;20045;-70
2022/04/29 02:05:09;;;;;;;6.78;1.63;;;5.60;99.90;;;;;;5067451;28;20040;-70
2022/04/29 02:07:34;;;;;;;4.00;1.45;;;5.60;99.90;;;;;;5070138;28;20036;-70
2022/04/29 02:10:00;;;;;;;5.88;1.80;;;5.60;99.90;;;;;;5050482;28;20044;-70
2022/04/29 02:12:26;;;;;;;3.47;1.67;;;5.50;99.90;;;;;;5069770;28;20460;-70
2022/04/29 02:14:52;;;;;;;2.83;1.63;;;5.60;99.90;;;;;;5049912;28;20058;-70
2022/04/29 02:17:17;;;;;;;3.28;1.80;;;5.60;99.90;;;;;;5064770;28;20032;-70
2022/04/29 02:19:43;;;;;;;3.80;2.25;;;5.50;99.90;;;;;;5051298;28;20098;-70
2022/04/29 02:22:09;;;;;;;4.13;1.70;;;5.50;99.90;;;;;;5053125;28;20090;-70
2022/04/29 02:24:35;;;;;;;2.80;1.85;;;5.40;99.90;;;;;;5060761;28;20039;-70
2022/04/29 02:27:02;;;;;;;2.75;1.55;;;5.50;99.90;;;;;;5033334;28;20118;-70
2022/04/29 02:29:28;;;;;;;4.72;2.28;;;5.40;99.90;;;;;;5062133;28;20041;-70
2022/04/29 02:31:55;;;;;;;3.40;2.17;;;5.40;99.90;;;;;;5069672;28;20465;-70
2022/04/29 02:34:21;;;;;;;6.57;2.15;;;5.50;99.90;;;;;;5051825;28;20078;-70
2022/04/29 02:36:47;;;;;;;3.40;1.73;;;5.50;99.90;;;;;;5060286;28;20124;-70
2022/04/29 02:39:13;;;;;;;3.88;1.50;;;5.50;99.90;;;;;;5063610;28;20469;-70
2022/04/29 02:41:40;;;;;;;2.97;1.73;;;5.50;99.90;;;;;;5068690;28;20090;-70
2022/04/29 02:44:05;;;;;;;6.65;2.28;;;5.50;99.90;;;;;;5067117;28;20044;-70
2022/04/29 02:46:32;;;;;;;2.83;1.60;;;5.50;99.90;;;;;;5068933;28;20043;-70
2022/04/29 02:48:57;;;;;;;2.83;1.23;;;5.40;99.90;;;;;;5067245;28;20090;-70
2022/04/29 02:51:23;;;;;;;4.15;2.10;;;5.40;99.90;;;;;;5068912;28;20048;-70
2022/04/29 02:53:48;;;;;;;6.20;1.80;;;5.40;99.90;;;;;;5065441;28;20031;-70
2022/04/29 02:56:14;;;;;;;3.95;1.35;;;5.40;99.90;;;;;;5069696;28;20444;-70
2022/04/29 02:58:40;;;;;;;2.80;1.45;;;5.40;99.90;;;;;;5067342;28;20059;-70
2022/04/29 03:01:05;;;;;;;2.65;1.60;;;5.30;99.90;;;;;;5068380;28;20340;-70
2022/04/29 03:03:31;;;;;;;5.53;2.58;;;5.40;99.90;;;;;;5050311;28;20074;-70
2022/04/29 03:05:56;;;;;;;9.50;2.75;;;5.40;99.90;;;;;;5050670;28;20147;-70
2022/04/29 03:08:22;;;;;;;2.70;1.52;;;5.40;99.90;;;;;;5066682;28;20090;-70
2022/04/29 03:10:48;;;;;;;4.55;1.88;;;5.30;99.90;;;;;;5067529;28;20462;-70
2022/04/29 03:13:14;;;;;;;3.90;2.28;;;5.30;99.90;;;;;;5068153;28;20395;-70
2022/04/29 03:15:40;;;;;;;2.70;1.35;;;5.20;99.90;;;;;;5067884;28;20029;-70
2022/04/29 03:18:18;;;;;;;4.13;2.00;;;5.20;99.90;;;;;;5061055;28;20028;-70
2022/04/29 03:20:44;;;;;;;3.00;1.55;;;5.10;99.90;;;;;;5052823;28;20041;-70
2022/04/29 03:23:11;;;;;;;10.30;3.05;;;5.10;99.90;;;;;;5065942;28;20075;-70
2022/04/29 03:25:37;;;;;;;3.83;1.77;;;5.20;99.90;;;;;;5039259;28;20520;-70
2022/04/29 03:28:05;;;;;;;2.63;1.63;;;5.20;99.90;;;;;;5067335;28;20379;-70
2022/04/29 03:30:31;;;;;;;6.22;2.35;;;5.20;99.90;;;;;;5066865;28;20048;-70
2022/04/29 03:33:00;;;;;;;4.28;1.73;;;5.30;99.90;;;;;;5052706;28;20037;-70
2022/04/29 03:35:25;;;;;;;4.38;2.05;;;5.30;99.90;;;;;;5049979;28;20040;-70
2022/04/29 03:37:53;;;;;;;5.72;2.38;;;5.30;99.90;;;;;;5067357;28;20464;-70
2022/04/29 03:40:21;;;;;;;3.70;2.33;;;5.30;99.90;;;;;;5047842;28;20032;-70
2022/04/29 03:42:56;;;;;;;6.32;1.67;;;5.30;99.90;;;;;;5066771;28;20400;-70
2022/04/29 03:45:24;;;;;;;10.25;2.63;;;5.10;99.90;;;;;;5047715;28;20037;-70
2022/04/29 03:47:50;;;;;;;8.00;2.47;;;5.00;99.90;;;;;;5065791;28;20029;-70
2022/04/29 03:50:16;;;;;;;3.80;1.88;;;4.90;99.90;;;;;;5049936;28;20072;-70
2022/04/29 03:52:56;;;;;;;3.08;1.42;;;4.90;99.90;;;;;;5046934;28;20465;-70
2022/04/29 03:55:25;;;;;;;5.13;2.30;;;4.90;99.90;;;;;;5067142;28;20111;-70
2022/04/29 03:57:53;;;;;;;3.65;1.90;;;4.90;99.90;;;;;;5066968;28;20523;-71
2022/04/29 04:00:19;;;;;;;3.50;1.70;;;5.00;99.90;;;;;;5048915;28;20528;-70
2022/04/29 04:02:45;;;;;;;3.45;1.80;;;5.00;99.90;;;;;;5066812;28;20071;-70
2022/04/29 04:05:11;;;;;;;4.30;2.03;;;5.00;99.90;;;;;;5066346;28;20064;-70
2022/04/29 04:07:37;;;;;;;3.92;1.83;;;5.10;99.90;;;;;;5064642;28;20040;-71
2022/04/29 04:10:06;;;;;;;3.33;1.95;;;5.10;99.90;;;;;;5066233;28;20087;-70
2022/04/29 04:12:43;;;;;;;4.30;1.83;;;5.10;99.90;;;;;;5066747;28;20036;-71
2022/04/29 04:15:10;;;;;;;2.63;1.63;;;5.10;99.90;;;;;;5046846;28;20032;-70
2022/04/29 04:17:36;;;;;;;2.67;1.67;;;5.00;99.90;;;;;;5048275;28;20127;-70
2022/04/29 04:20:02;;;;;;;6.82;1.77;;;5.00;99.90;;;;;;5066805;28;20529;-70
2022/04/29 04:22:28;;;;;;;6.07;2.15;;;5.00;99.90;;;;;;5066615;28;20050;-70
2022/04/29 04:24:54;;;;;;;6.53;2.10;;;5.00;99.90;;;;;;5048423;28;20116;-70
2022/04/29 04:27:19;;;;;;;5.38;2.53;;;4.90;99.90;;;;;;5065431;28;20032;-70
2022/04/29 04:29:45;;;;;;;4.20;2.03;;;4.90;99.90;;;;;;5060870;28;20221;-70
2022/04/29 04:32:11;;;;;;;3.63;1.67;;;4.90;99.90;;;;;;5058442;28;20040;-71
2022/04/29 04:34:52;;;;;;;5.13;2.20;;;5.00;99.90;;;;;;5049635;28;20036;-70
2022/04/29 04:37:21;;;;;;;3.40;1.90;;;5.00;99.90;;;;;;5066399;28;20079;-71
2022/04/29 04:39:48;;;;;;;5.13;2.85;;;5.00;99.90;;;;;;5050129;28;20048;-70
2022/04/29 04:42:14;;;;;;;8.13;3.28;;;5.10;99.90;;;;;;5066782;28;20550;-71
2022/04/29 04:44:40;;;;;;;5.28;2.15;;;5.10;99.90;;;;;;5065140;28;20249;-71
2022/04/29 04:47:06;;;;;;;3.50;2.08;;;5.20;99.90;;;;;;5046789;28;20414;-71
2022/04/29 04:49:33;;;;;;;4.70;1.90;;;5.30;99.90;;;;;;5065988;28;20051;-71
2022/04/29 04:51:58;;;;;;;4.35;2.15;;;5.30;99.90;;;;;;5066427;28;20106;-70
2022/04/29 04:54:24;;;;;;;5.90;2.60;;;5.30;99.90;;;;;;5065336;28;20482;-70
2022/04/29 04:56:49;;;;;;;5.25;2.65;;;5.30;99.90;;;;;;5049499;28;20037;-71
2022/04/29 04:59:15;;;;;;;6.18;2.15;;;5.30;99.90;;;;;;5063700;28;20040;-71
2022/04/29 05:01:41;;;;;;;3.83;1.73;;;5.40;99.90;;;;;;5065916;28;20068;-71
2022/04/29 05:04:06;;;;;;;4.25;2.45;;;5.40;99.90;;;;;;5066006;28;20048;-70
2022/04/29 05:06:32;;;;;;;8.00;2.88;;;5.50;99.90;;;;;;5064098;28;20035;-70
2022/04/29 05:08:57;;;;;;;4.03;2.00;;;5.50;99.90;;;;;;5048804;28;20427;-70
2022/04/29 05:11:23;;;;;;;3.50;2.15;;;5.60;99.90;;;;;;5063355;28;20042;-70
2022/04/29 05:13:49;;;;;;;3.97;1.80;;;5.60;99.90;;;;;;5060685;28;20068;-70
2022/04/29 05:16:14;;;;;;;4.97;2.40;;;5.70;99.90;;;;;;5065733;28;20482;-70
2022/04/29 05:18:40;;;;;;;4.00;2.30;;;5.80;99.90;;;;;;5065215;28;20112;-70
2022/04/29 05:21:06;;;;;;;3.50;2.17;;;5.90;99.90;;;;;;5065729;28;20072;-70
2022/04/29 05:23:31;;;;;;;5.50;2.35;;;6.00;99.90;;;;;;5047740;28;20036;-71
2022/04/29 05:25:57;;;;;;;8.07;3.05;;;6.10;99.90;;;;;;5065578;28;20121;-70
2022/04/29 05:28:22;;;;;;;4.45;2.45;;;6.10;99.90;;;;;;5066373;28;20467;-70
2022/04/29 05:30:49;;;;;;;4.35;2.38;;;6.20;99.90;;;;;;5069867;28;20036;-71
2022/04/29 05:33:15;;;;;;;19.95;3.20;;;6.20;99.90;;;;;;5063795;28;20313;-70
2022/04/29 05:35:41;;;;;;;5.35;2.00;;;6.40;99.90;;;;;;5066106;28;20283;-71
2022/04/29 05:38:06;;;;;;;7.22;2.63;;;6.40;99.90;;;;;;5071371;28;20052;-70
2022/04/29 05:43:17;;;;;;;5.30;2.20;;;6.60;99.90;;;;;;5058859;28;20060;-70
2022/04/29 05:45:43;;;;;;;3.40;1.38;;;6.60;99.90;;;;;;5068788;28;20036;-70
2022/04/29 05:48:09;;;;;;;2.47;1.67;;;6.60;99.90;;;;;;5052825;28;20044;-70
2022/04/29 05:50:34;;;;;;;3.85;2.05;;;6.70;99.90;;;;;;5067473;28;20263;-71
2022/04/29 05:53:00;;;;;;;4.25;1.42;;;6.80;99.90;;;;;;5068859;28;20063;-71
2022/04/29 05:55:26;;;;;;;3.08;1.98;;;6.80;99.90;;;;;;5050096;28;20040;-71
2022/04/29 05:57:52;;;;;;;5.47;2.03;;;6.80;99.90;;;;;;5069626;28;20505;-70
2022/04/29 06:00:19;;;;;;;6.10;2.05;;;6.80;99.90;;;;;;5066617;28;20547;-71
2022/04/29 06:02:46;;;;;;;3.83;2.05;;;6.90;99.90;;;;;;5068785;28;20048;-70
2022/04/29 06:05:12;;;;;;;5.28;2.65;;;6.90;99.90;;;;;;5068820;28;20087;-70
2022/04/29 06:07:37;;;;;;;3.95;1.83;;;7.00;99.90;;;;;;5068943;28;20773;-71
2022/04/29 06:10:05;;;;;;;3.80;1.55;;;7.00;99.90;;;;;;5068359;28;20045;-70
2022/04/29 06:12:36;;;;;;;3.05;1.52;;;7.00;99.90;;;;;;5050548;28;20106;-70
2022/04/29 06:15:02;;;;;;;3.88;1.80;;;7.10;99.90;;;;;;5065474;28;20041;-71
2022/04/29 06:17:27;;;;;;;4.05;2.22;;;7.10;99.90;;;;;;5068753;28;20036;-70
2022/04/29 06:19:53;;;;;;;3.75;2.25;;;7.10;99.90;;;;;;5066849;28;20040;-70
2022/04/29 06:22:18;;;;;;;4.13;1.90;;;7.10;99.90;;;;;;5062520;28;20064;-70
2022/04/29 06:24:44;;;;;;;3.42;1.60;;;7.20;99.90;;;;;;5060902;28;20042;-70
2022/04/29 06:27:10;;;;;;;4.53;2.13;;;7.30;99.90;;;;;;5068871;28;20036;-70
2022/04/29 06:29:36;;;;;;;8.00;2.30;;;7.30;99.90;;;;;;5066734;28;20082;-70
2022/04/29 06:32:02;;;;;;;10.45;2.25;;;7.30;99.90;;;;;;5062530;28;20036;-70
2022/04/29 06:34:27;;;;;;;3.58;2.05;;;7.40;99.90;;;;;;5068128;28;20047;-70
2022/04/29 06:36:53;;;;;;;4.32;2.03;;;7.40;99.90;;;;;;5040842;28;20063;-70
2022/04/29 06:39:18;;;;;;;6.10;1.98;;;7.50;99.90;;;;;;5062749;28;20040;-70
2022/04/29 06:41:44;;;;;;;3.88;2.20;;;7.50;99.90;;;;;;5064286;28;20047;-70
2022/04/29 06:44:10;;;;;;;4.28;1.83;;;7.50;99.90;;;;;;5045402;28;21011;-71
2022/04/29 06:46:35;;;;;;;4.97;2.05;;;7.60;99.90;;;;;;5046945;28;20618;-70
2022/04/29 06:49:01;;;;;;;2.88;1.65;;;7.70;99.90;;;;;;5063656;28;20054;-70
2022/04/29 06:51:26;;;;;;;4.55;1.73;;;7.70;99.90;;;;;;5065422;28;20041;-70
2022/04/29 06:53:52;;;;;;;4.90;1.70;;;7.70;99.90;;;;;;5062509;28;20056;-70
2022/04/29 06:56:18;;;;;;;4.68;1.63;;;7.70;99.90;;;;;;5061424;28;20106;-71
2022/04/29 06:58:43;;;;;;;5.15;1.75;;;7.80;99.90;;;;;;5062455;28;20051;-70
2022/04/29 07:01:09;;;;;;;3.42;1.42;;;7.80;99.90;;;;;;5065157;28;20028;-70
2022/04/29 07:03:36;;;;;;;4.03;1.98;;;7.90;99.90;;;;;;5063950;28;20090;-70
2022/04/29 07:06:02;;;;;;;3.10;1.50;;;7.90;99.90;;;;;;5044142;28;20371;-71
2022/04/29 07:08:28;;;;;;;6.10;1.98;;;8.00;99.90;;;;;;5065841;28;20490;-70
2022/04/29 07:10:55;;;;;;;2.55;1.63;;;8.00;99.90;;;;;;5050868;28;20042;-70
2022/04/29 07:13:21;;;;;;;3.10;1.83;;;8.00;99.90;;;;;;5061153;28;20578;-70
2022/04/29 07:15:48;;;;;;;3.60;1.80;;;8.10;99.90;;;;;;5064377;28;20111;-71
2022/04/29 07:18:14;;;;;;;6.65;1.85;;;8.10;99.90;;;;;;5061576;28;20506;-71
2022/04/29 07:20:40;;;;;;;2.83;1.55;;;8.10;99.90;;;;;;5063854;28;20037;-71
2022/04/29 07:23:06;;;;;;;4.35;1.83;;;8.20;99.90;;;;;;5062462;28;20044;-71
2022/04/29 07:25:31;;;;;;;2.90;1.75;;;8.20;99.90;;;;;;5042011;28;20047;-71
2022/04/29 07:27:57;;;;;;;3.30;1.23;;;8.30;99.90;;;;;;5058803;28;20052;-71
2022/04/29 07:30:23;;;;;;;1.95;1.40;;;8.30;99.90;;;;;;5056805;28;20490;-72
2022/04/29 07:32:48;;;;;;;1.60;1.02;;;8.30;99.90;;;;;;5043518;28;20032;-71
2022/04/29 07:43:27;;;;;;;1.92;1.20;;;8.50;99.90;;;;;;5060034;28;20175;-71
2022/04/29 07:45:53;;;;;;;2.17;1.00;;;8.50;99.90;;;;;;5059776;28;20036;-71
2022/04/29 07:48:19;;;;;;;3.80;1.00;;;8.60;99.90;;;;;;5043635;28;20603;-73
2022/04/29 07:50:45;;;;;;;1.67;1.00;;;8.60;99.90;;;;;;5059397;28;20037;-71
2022/04/29 07:53:13;;;;;;;3.28;1.10;;;8.70;99.90;;;;;;5058575;28;20040;-72
2022/04/29 07:55:39;;;;;;;2.05;1.40;;;8.70;99.90;;;;;;5065000;28;20036;-71
2022/04/29 07:58:04;;;;;;;1.90;1.17;;;8.70;99.90;;;;;;5057170;28;20058;-71
2022/04/29 08:00:33;;;;;;;2.65;1.85;;;8.80;99.90;;;;;;5060192;28;20052;-72
2022/04/29 08:03:01;;;;;;;1.73;1.08;;;8.80;99.90;;;;;;5063697;28;20054;-71
2022/04/29 08:05:28;;;;;;;3.53;1.25;;;8.80;99.90;;;;;;5060676;28;20528;-71
2022/04/29 08:07:59;;;;;;;2.10;1.10;;;8.90;99.90;;;;;;5064920;28;20064;-72
2022/04/29 08:10:32;;;;;;;2.00;1.17;;;8.90;99.90;;;;;;5064740;28;20041;-71
2022/04/29 08:13:02;;;;;;;1.85;1.00;;;9.10;99.90;;;;;;5041019;28;20048;-72
2022/04/29 08:15:30;;;;;;;4.00;1.10;;;9.20;99.90;;;;;;5065618;28;20032;-72
2022/04/29 08:17:57;;;;;;;1.90;1.02;;;9.30;99.90;;;;;;5061494;28;20383;-71
2022/04/29 08:20:23;;;;;;;1.98;1.10;;;9.30;99.90;;;;;;5061752;28;20111;-71
2022/04/29 08:22:49;;;;;;;1.50;0.80;;;9.30;99.90;;;;;;5079348;28;20093;-72
2022/04/29 08:25:17;;;;;;;2.33;1.33;;;9.30;99.90;;;;;;5046148;28;20087;-72
2022/04/29 08:27:43;;;;;;;1.75;1.00;;;9.30;99.90;;;;;;5067170;28;20036;-72
2022/04/29 08:30:09;;;;;;;1.42;0.90;;;9.40;99.90;;;;;;5063430;28;20039;-71
2022/04/29 08:32:43;;;;;;;2.80;1.23;;;9.40;99.90;;;;;;5065429;28;20028;-72
2022/04/29 08:35:10;;;;;;;4.35;1.38;;;9.40;99.90;;;;;;5065485;28;20036;-71
2022/04/29 08:37:40;;;;;;;5.63;1.10;;;9.50;99.90;;;;;;5063980;28;20060;-71
2022/04/29 08:40:06;;;;;;;1.58;0.93;;;9.50;99.90;;;;;;5044484;28;20048;-72
2022/04/29 08:42:37;;;;;;;1.48;1.20;;;9.60;99.90;;;;;;5063725;28;20059;-72
2022/04/29 08:45:06;;;;;;;2.50;1.00;;;9.70;99.90;;;;;;5062907;28;20052;-71
2022/04/29 08:47:35;;;;;;;2.72;0.90;;;9.70;95.80;;;;;;5062469;28;20044;-71
2022/04/29 08:50:02;;;;;;;3.78;1.25;;;9.70;99.10;;;;;;5062779;28;20049;-71
2022/04/29 08:52:28;;;;;;;1.60;1.00;;;9.80;99.90;;;;;;5063357;28;20036;-71
2022/04/29 09:00:44;;;;;;;1.95;0.85;;;9.90;98.50;;;;;;4980015;28;20559;-72
2022/04/29 09:03:14;;;;;;;1.67;0.90;;;10.00;99.10;;;;;;4980270;28;20042;-73
2022/04/29 09:05:45;;;;;;;1.85;0.90;;;10.00;99.30;;;;;;5016585;28;20059;-73
2022/04/29 09:08:15;;;;;;;1.45;0.90;;;10.00;98.10;;;;;;5055105;28;20033;-73
2022/04/29 09:10:58;;;;;;;1.30;0.90;;;10.00;98.00;;;;;;5038885;28;20047;-73
2022/04/29 09:13:26;;;;;;;2.20;1.17;;;10.00;96.60;;;;;;5053839;28;20051;-73
2022/04/29 09:15:58;;;;;;;2.90;1.00;;;10.00;97.60;;;;;;5060243;28;20166;-73
2022/04/29 09:18:34;;;;;;;3.00;1.00;;;10.00;96.00;;;;;;5040108;28;20120;-73
2022/04/29 09:21:25;;;;;;;4.95;1.10;;;10.00;97.30;;;;;;5056160;28;20103;-73
2022/04/29 09:24:06;;;;;;;1.48;0.95;;;10.00;97.20;;;;;;5058999;28;20040;-71
2022/04/29 09:26:36;;;;;;;2.28;0.70;;;10.00;96.90;;;;;;5044511;28;20041;-72
2022/04/29 09:29:19;;;;;;;2.42;1.05;;;10.10;97.70;;;;;;5042770;28;20040;-73
2022/04/29 09:31:56;;;;;;;4.07;1.27;;;10.10;97.20;;;;;;5057754;28;20055;-72
2022/04/29 09:34:22;;;;;;;1.75;1.05;;;10.10;97.30;;;;;;5057148;28;22231;-73
2022/04/29 09:36:48;;;;;;;1.02;0.70;;;10.10;97.20;;;;;;5055944;28;20375;-73
2022/04/29 09:39:32;;;;;;;1.52;1.20;;;10.10;97.80;;;;;;5038148;28;20111;-73
2022/04/29 09:42:00;;;;;;;1.25;0.88;;;10.20;97.30;;;;;;5033415;28;20202;-73
2022/04/29 09:44:34;;;;;;;1.15;0.80;;;10.20;97.20;;;;;;5058444;28;20041;-72
2022/04/29 09:47:08;;;;;;;1.35;0.85;;;10.20;96.70;;;;;;5052283;28;20041;-72
2022/04/29 09:49:34;;;;;;;2.80;1.20;;;10.30;97.20;;;;;;5043585;28;20058;-72
2022/04/29 09:52:00;;;;;;;3.60;1.05;;;10.30;96.50;;;;;;5038527;28;20874;-72
2022/04/29 09:54:30;;;;;;;2.45;1.30;;;10.40;97.00;;;;;;5053178;28;20036;-71
2022/04/29 09:57:07;;;;;;;1.45;0.82;;;10.50;96.90;;;;;;5059535;28;20116;-72
2022/04/29 09:59:33;;;;;;;1.38;0.93;;;10.50;95.50;;;;;;5058211;28;20036;-72
2022/04/29 10:02:00;;;;;;;1.67;1.00;;;10.50;96.60;;;;;;5057005;28;20510;-72
2022/04/29 10:04:28;;;;;;;5.50;1.25;;;10.60;96.70;;;;;;5058348;28;20044;-72
2022/04/29 10:06:54;;;;;;;2.05;1.05;;;10.60;96.30;;;;;;5061061;28;20512;-72
2022/04/29 10:09:22;;;;;;;1.60;0.95;;;10.70;96.50;;;;;;5039567;28;20036;-72
2022/04/29 10:11:49;;;;;;;1.80;1.35;;;10.70;96.60;;;;;;5036723;28;20052;-72
2022/04/29 10:14:18;;;;;;;1.20;0.70;;;10.70;96.50;;;;;;5051943;28;20258;-71
2022/04/29 10:21:15;;;;;;;2.67;1.10;;;10.70;96.40;;;;;;5058256;28;20068;-72
2022/04/29 10:22:16;;;;;;;1.38;0.80;;;10.70;96.40;;;;;;5055515;28;20048;-72
2022/04/29 10:24:42;;;;;;;2.65;0.88;;;10.70;96.40;;;;;;5055494;28;20335;-71
2022/04/29 10:27:07;;;;;;;3.17;1.00;;;10.60;95.80;;;;;;5055849;28;20478;-71
2022/04/29 10:29:33;;;;;;;1.05;0.70;;;10.60;96.30;;;;;;5055408;28;20052;-72
2022/04/29 10:32:10;;;;;;;1.85;0.80;;;10.60;96.10;;;;;;5058114;28;20040;-72
2022/04/29 10:34:36;;;;;;;1.67;0.90;;;10.60;94.20;;;;;;5079113;28;20089;-71
2022/04/29 10:37:09;;;;;;;1.05;0.70;;;10.50;95.30;;;;;;5062765;28;20048;-71
2022/04/29 10:39:35;;;;;;;1.58;0.90;;;10.50;95.20;;;;;;5045401;28;20496;-72
2022/04/29 10:42:07;;;;;;;2.15;1.00;;;10.40;95.30;;;;;;5060632;28;20041;-71
2022/04/29 10:44:33;;;;;;;3.28;1.10;;;10.40;95.90;;;;;;5056669;28;20494;-72
2022/04/29 10:47:30;;;;;;;1.58;0.95;;;10.40;96.10;;;;;;5039498;28;20094;-72
2022/04/29 10:50:35;;;;;;;1.00;0.68;;;10.40;94.40;;;;;;5060002;28;20045;-72
2022/04/29 10:53:03;;;;;;;1.23;0.80;;;10.40;94.70;;;;;;5062154;28;20044;-72
2022/04/29 10:55:29;;;;;;;1.48;1.05;;;10.40;95.70;;;;;;5044152;28;20046;-72
2022/04/29 10:58:03;;;;;;;1.88;1.20;;;10.50;96.00;;;;;;5043727;28;20662;-72
2022/04/29 11:00:28;;;;;;;2.65;0.80;;;10.50;94.50;;;;;;5043654;28;20115;-72
2022/04/29 11:02:54;;;;;;;3.22;1.38;;;10.40;95.10;;;;;;5060317;28;20046;-72
2022/04/29 11:05:37;;;;;;;1.58;0.95;;;10.40;95.50;;;;;;5038800;28;20040;-71
2022/04/29 11:08:10;;;;;;;3.75;1.27;;;10.50;94.40;;;;;;5056767;28;20049;-72
2022/04/29 11:10:57;;;;;;;1.70;1.23;;;10.50;94.60;;;;;;5058484;28;20155;-72
2022/04/29 11:13:26;;;;;;;3.33;1.45;;;10.50;94.00;;;;;;5039681;28;20040;-72
2022/04/29 11:15:51;;;;;;;1.40;0.85;;;10.50;95.30;;;;;;5036181;28;20071;-72
2022/04/29 11:18:20;;;;;;;1.73;0.95;;;10.50;95.50;;;;;;5061045;28;20473;-72
2022/04/29 11:20:56;;;;;;;1.58;0.93;;;10.50;94.60;;;;;;5061534;28;20082;-72
2022/04/29 11:26:15;;;;;;;2.30;1.17;;;10.50;94.40;;;;;;5060790;28;20048;-72
2022/04/29 11:28:41;;;;;;;3.08;1.52;;;10.60;95.00;;;;;;5057674;28;20508;-72
2022/04/29 11:31:08;;;;;;;1.85;1.27;;;10.50;94.20;;;;;;5057673;28;20029;-72
2022/04/29 11:33:35;;;;;;;2.95;1.35;;;10.60;94.60;;;;;;5045696;28;21227;-72
2022/04/29 11:36:03;;;;;;;2.97;1.65;;;10.60;94.90;;;;;;5042429;28;20032;-72
2022/04/29 11:38:31;;;;;;;1.92;1.40;;;10.60;95.10;;;;;;5058699;28;20486;-72
2022/04/29 11:41:01;;;;;;;2.60;1.55;;;10.60;94.90;;;;;;5039270;28;20049;-72
2022/04/29 11:43:27;;;;;;;2.45;1.35;;;10.70;94.70;;;;;;5059860;28;20041;-70
2022/04/29 11:46:07;;;;;;;2.70;1.63;;;10.70;94.70;;;;;;5059466;28;20040;-72
2022/04/29 11:48:34;;;;;;;2.17;1.42;;;10.80;94.00;;;;;;5045668;28;20048;-72
2022/04/29 11:51:04;;;;;;;2.58;1.63;;;10.70;94.80;;;;;;5051571;28;20056;-72
2022/04/29 11:53:30;;;;;;;2.25;1.50;;;10.80;94.40;;;;;;5068662;28;20253;-72
2022/04/29 11:55:56;;;;;;;2.30;1.48;;;10.80;94.20;;;;;;5068333;28;20522;-72
2022/04/29 11:58:21;;;;;;;2.85;1.63;;;10.80;93.60;;;;;;5065504;28;20039;-72
2022/04/29 12:00:55;;;;;;;2.58;1.40;;;10.80;93.70;;;;;;5068083;28;20066;-72
2022/04/29 12:03:23;;;;;;;3.13;1.80;;;10.80;92.60;;;;;;5051774;28;20048;-71
2022/04/29 12:05:49;;;;;;;2.70;1.80;;;10.80;93.20;;;;;;5068388;28;20052;-71
2022/04/29 12:08:16;;;;;;;2.75;1.67;;;10.80;92.80;;;;;;5050163;28;20169;-71
2022/04/29 12:10:47;;;;;;;4.25;2.00;;;10.80;93.30;;;;;;5051470;28;20040;-71
2022/04/29 12:13:12;;;;;;;2.50;1.50;;;10.80;92.80;;;;;;5066778;28;20040;-71
2022/04/29 12:15:41;;;;;;;2.90;1.42;;;10.80;93.30;;;;;;5051276;28;20089;-71
2022/04/29 12:18:16;;;;;;;3.45;1.48;;;10.80;93.00;;;;;;5067592;28;20508;-71
2022/04/29 12:20:42;;;;;;;8.60;1.67;;;10.80;93.00;;;;;;5050993;28;20032;-71
2022/04/29 12:23:19;;;;;;;2.80;1.40;;;10.90;93.50;;;;;;5066476;28;20036;-71
2022/04/29 12:25:47;;;;;;;2.75;1.73;;;10.90;93.40;;;;;;5067756;28;20051;-71
2022/04/29 12:28:20;;;;;;;3.60;1.50;;;11.00;93.20;;;;;;5048770;28;20348;-71
2022/04/29 12:36:52;;;;;;;2.50;1.73;;;10.90;92.70;;;;;;5066982;28;20484;-71
2022/04/29 12:39:21;;;;;;;3.25;1.60;;;11.00;91.30;;;;;;5066461;28;20045;-72
2022/04/29 12:42:00;;;;;;;2.35;1.15;;;11.00;91.40;;;;;;5050334;28;20482;-71
2022/04/29 12:47:24;;;;;;;3.25;1.45;;;11.00;91.60;;;;;;5068632;28;20044;-72
2022/04/29 12:49:53;;;;;;;2.25;1.20;;;11.00;90.30;;;;;;5066868;28;20187;-72
2022/04/29 12:52:19;;;;;;;3.08;1.70;;;11.00;91.70;;;;;;5050167;28;20048;-72
2022/04/29 12:54:44;;;;;;;2.85;1.77;;;11.00;91.40;;;;;;5066898;28;20032;-71
2022/04/29 12:57:10;;;;;;;2.70;1.60;;;11.00;92.00;;;;;;5065787;28;20119;-72
2022/04/29 12:59:39;;;;;;;2.38;1.52;;;11.00;92.20;;;;;;5064918;28;20048;-71
2022/04/29 13:02:06;;;;;;;2.13;1.30;;;11.00;90.90;;;;;;5066895;28;20097;-72
2022/04/29 13:04:31;;;;;;;2.83;1.48;;;11.00;91.30;;;;;;5050380;28;20040;-71
2022/04/29 13:06:57;;;;;;;2.65;1.80;;;11.00;90.90;;;;;;5067324;28;20037;-72
2022/04/29 13:09:25;;;;;;;2.53;1.65;;;10.90;91.40;;;;;;5066719;28;20086;-71
2022/04/29 13:11:51;;;;;;;2.65;1.63;;;11.00;91.40;;;;;;5050127;28;20033;-71
2022/04/29 13:14:17;;;;;;;3.65;1.85;;;11.00;90.40;;;;;;5063711;28;20507;-72
2022/04/29 13:16:44;;;;;;;2.92;1.30;;;11.00;91.10;;;;;;5050249;28;20195;-71
2022/04/29 13:19:11;;;;;;;3.85;1.85;;;11.10;91.50;;;;;;5048828;28;20397;-71
2022/04/29 13:21:36;;;;;;;3.25;1.58;;;11.20;91.60;;;;;;5066659;28;20036;-71
2022/04/29 13:24:02;;;;;;;2.67;1.30;;;11.20;90.70;;;;;;5066553;28;20409;-71
2022/04/29 13:26:28;;;;;;;2.17;1.52;;;11.30;91.20;;;;;;5067224;28;20405;-72